Latest Coastal Weather Observations for Burnie Port

IDT60701

Issued at 9:12 am EST Friday 19 August 2022 (issued every 10 minutes, with the page automatically refreshed every 10 minutes)

About coastal observations | Map of coastal stations | Coastal observations for TAS | Marine services | Other Formats
Station Details ID: 091344 Name: BURNIE NTC AWS Lat: -41.05 Lon: 145.91 Height: 0.0 m
Data from the previous 72 hours. | See also: Recent months for locations in Tasmania
Date/Time
EST
Wind Sea
Height
m
Swell Vis
km
Cloud Weather Temp
°C
Press
MSL
hPa
Rain since
9am
mm
Dir  Spd
kts
Gust
kts
Height
m
Period
s
Dir
19/09:00am NW 5 8 - - - - - - - 9.1 1009.4 -
19/08:30am WNW 4 5 - - - - - - - 8.2 1009.3 -
19/08:00am WNW 6 9 - - - - - - - 8.0 1009.0 -
19/07:30am W 6 8 - - - - - - - 7.9 1008.6 -
19/07:00am W 7 11 - - - - - - - 7.7 1008.1 -
19/06:30am W 6 8 - - - - - - - 8.2 1007.9 -
19/06:00am WSW 6 9 - - - - - - - 8.1 1007.6 -
19/05:30am WSW 5 8 - - - - - - - 7.9 1007.3 -
19/05:00am WNW 5 8 - - - - - - - 7.8 1007.1 -
19/04:30am W 5 8 - - - - - - - 7.8 1006.8 -
19/04:00am WSW 5 7 - - - - - - - 8.3 1006.5 -
19/03:30am W 6 10 - - - - - - - 8.6 1006.3 -
19/03:00am WSW 7 11 - - - - - - - 8.7 1006.1 -
19/02:30am W 6 8 - - - - - - - 9.0 1006.0 -
19/02:00am W 7 11 - - - - - - - 9.3 1005.7 -
19/01:30am W 7 10 - - - - - - - 9.5 1005.8 -
19/01:00am WNW 4 7 - - - - - - - 9.4 1005.3 -
19/12:30am W 6 9 - - - - - - - 9.7 1005.2 -
19/12:00am W 6 11 - - - - - - - 9.9 1004.7 -
 
Date/Time
EST
Wind Sea
Height
m
Swell Vis
km
Cloud Weather Temp
°C
Press
MSL
hPa
Rain since
9am
mm
Dir  Spd
kts
Gust
kts
Height
m
Period
s
Dir
18/11:30pm W 3 5 - - - - - - - 9.9 1004.9 -
18/11:00pm WSW 3 5 - - - - - - - 9.7 1004.8 -
18/10:30pm W 4 7 - - - - - - - 10.2 1004.8 -
18/10:00pm W 3 5 - - - - - - - 10.1 1004.3 -
18/09:30pm WNW 4 7 - - - - - - - 10.2 1004.1 -
18/09:00pm W 5 8 - - - - - - - 10.3 1003.7 -
18/08:30pm WNW 4 7 - - - - - - - 10.4 1003.6 -
18/08:00pm WNW 5 7 - - - - - - - 10.4 1003.6 -
18/07:30pm W 5 9 - - - - - - - 10.8 1003.6 -
18/07:00pm W 6 8 - - - - - - - 11.0 1003.2 -
18/06:30pm W 5 8 - - - - - - - 11.2 1002.5 -
18/06:00pm W 6 9 - - - - - - - 11.7 1001.9 -
18/05:30pm W 7 11 - - - - - - - 12.2 1001.4 -
18/05:00pm W 9 15 - - - - - - - 12.5 1000.5 -
18/04:30pm W 13 21 - - - - - - - 12.9 999.9 -
18/04:00pm WNW 14 20 - - - - - - - 12.9 999.4 -
18/03:30pm WNW 14 20 - - - - - - - 12.5 998.8 -
18/03:11pm NW 22 32 - - - - - - - 12.3 998.9 -
18/03:00pm NW 23 31 - - - - - - - 13.0 998.6 -
18/02:30pm WNW 24 37 - - - - - - - 13.4 998.5 -
18/02:09pm NW 28 41 - - - - - - - 13.0 997.9 -
18/02:00pm NW 28 37 - - - - - - - 13.2 998.0 -
18/01:49pm NW 25 36 - - - - - - - 13.0 998.0 -
18/01:30pm NW 28 37 - - - - - - - 12.9 998.1 -
18/01:00pm NW 29 39 - - - - - - - 13.3 998.3 -
18/12:58pm NW 28 39 - - - - - - - 13.2 998.2 -
18/12:30pm NNW 28 35 - - - - - - - 13.2 998.3 -
18/12:03pm NNW 29 39 - - - - - - - 13.2 998.7 -
18/12:00pm NNW 28 35 - - - - - - - 13.2 998.8 -
18/11:30am NNW 28 36 - - - - - - - 13.4 999.2 -
18/11:00am NW 27 35 - - - - - - - 13.4 999.6 -
18/10:30am NNW 28 37 - - - - - - - 13.4 999.6 -
18/10:00am NNW 28 37 - - - - - - - 13.6 999.8 -
18/09:30am NNW 22 27 - - - - - - - 13.3 1000.5 -
18/09:00am NW 13 17 - - - - - - - 12.9 1001.3 -
18/08:30am NNW 17 22 - - - - - - - 12.5 1001.7 -
18/08:00am NNW 22 27 - - - - - - - 12.1 1001.7 -
18/07:30am NNW 20 25 - - - - - - - 12.3 1001.6 -
18/07:00am NNW 20 25 - - - - - - - 12.5 1002.2 -
18/06:30am NNW 23 28 - - - - - - - 12.8 1002.4 -
18/06:00am NNW 24 29 - - - - - - - 12.9 1002.4 -
18/05:30am NNW 22 28 - - - - - - - 12.9 1002.9 -
18/05:00am NNW 22 30 - - - - - - - 12.9 1003.3 -
18/04:30am NNW 20 26 - - - - - - - 12.7 1003.2 -
18/04:00am NNW 21 26 - - - - - - - 12.6 1003.7 -
18/03:30am N 20 25 - - - - - - - 12.6 1003.9 -
18/03:00am N 21 27 - - - - - - - 12.5 1004.5 -
18/02:30am N 20 24 - - - - - - - 12.5 1005.2 -
18/02:00am NNW 18 25 - - - - - - - 12.5 1006.0 -
18/01:30am NNW 20 23 - - - - - - - 12.6 1006.8 -
18/01:00am NNW 21 25 - - - - - - - 12.1 1007.5 -
18/12:30am NNW 13 17 - - - - - - - 12.4 1008.0 -
18/12:00am NNW 13 17 - - - - - - - 12.4 1008.4 -
 
Date/Time
EST
Wind Sea
Height
m
Swell Vis
km
Cloud Weather Temp
°C
Press
MSL
hPa
Rain since
9am
mm
Dir  Spd
kts
Gust
kts
Height
m
Period
s
Dir
17/11:30pm NNW 13 18 - - - - - - - 12.3 1008.9 -
17/11:00pm NNW 13 16 - - - - - - - 12.3 1009.1 -
17/10:30pm NNW 10 14 - - - - - - - 12.3 1009.8 -
17/10:00pm NNW 8 11 - - - - - - - 12.2 1009.8 -
17/09:30pm NNW 12 15 - - - - - - - 12.0 1010.6 -
17/09:00pm NNW 8 12 - - - - - - - 11.9 1010.8 -
17/08:30pm NNW 9 11 - - - - - - - 11.9 1011.1 -
17/08:00pm N 8 9 - - - - - - - 11.9 1011.0 -
17/07:30pm N 6 8 - - - - - - - 11.9 1011.3 -
17/07:00pm N 8 10 - - - - - - - 11.9 1011.4 -
17/06:30pm N 8 11 - - - - - - - 11.8 1011.6 -
17/06:00pm N 9 11 - - - - - - - 11.7 1011.9 -
17/05:30pm NNW 10 13 - - - - - - - 11.7 1012.0 -
17/05:00pm N 10 12 - - - - - - - 11.7 1012.6 -
17/04:30pm NNW 14 17 - - - - - - - 11.7 1012.7 -
17/04:00pm N 8 10 - - - - - - - 11.9 1012.5 -
17/03:30pm NNE 5 10 - - - - - - - 11.6 1013.0 -
17/03:00pm NNE 3 4 - - - - - - - 11.1 1013.3 -
17/02:30pm NNE 3 5 - - - - - - - 11.1 1012.8 -
17/02:00pm NW 5 7 - - - - - - - 11.1 1013.6 -
17/01:30pm NW 7 9 - - - - - - - 11.0 1014.2 -
17/01:00pm NW 8 10 - - - - - - - 11.0 1014.4 -
17/12:30pm NW 12 15 - - - - - - - 11.0 1014.9 -
17/12:00pm N 4 6 - - - - - - - 10.4 1016.0 -
17/11:30am ENE 3 5 - - - - - - - 10.0 1016.2 -
17/11:00am NNE 2 2 - - - - - - - 10.1 1016.7 -
17/10:30am NW 1 2 - - - - - - - 10.1 1016.7 -
17/10:00am NW 6 8 - - - - - - - 9.2 1017.0 -
17/09:30am E 1 3 - - - - - - - 9.8 1016.7 -
17/09:00am N 2 3 - - - - - - - 9.3 1016.4 -
17/08:30am S 4 5 - - - - - - - 8.5 1016.7 -
17/08:00am SSW 4 5 - - - - - - - 8.5 1016.6 -
17/07:30am S 5 7 - - - - - - - 7.5 1015.9 -
17/07:00am S 5 6 - - - - - - - 7.5 1016.0 -
17/06:30am WSW 2 3 - - - - - - - 8.0 1016.4 -
17/06:00am NW 1 2 - - - - - - - 8.9 1015.7 -
17/05:30am SSW 4 5 - - - - - - - 8.5 1015.5 -
17/05:00am SSW 4 6 - - - - - - - 8.4 1015.3 -
17/04:30am S 5 7 - - - - - - - 8.1 1015.1 -
17/04:00am SSW 5 6 - - - - - - - 8.8 1015.0 -
17/03:30am SSW 5 7 - - - - - - - 8.6 1014.8 -
17/03:00am SSW 5 7 - - - - - - - 9.3 1014.7 -
17/02:30am SSW 4 6 - - - - - - - 9.1 1014.7 -
17/02:00am SSW 3 6 - - - - - - - 9.1 1014.7 -
17/01:30am WSW 3 5 - - - - - - - 10.0 1014.9 -
17/01:00am WSW 3 5 - - - - - - - 10.1 1014.6 -
17/12:30am ESE 3 5 - - - - - - - 10.7 1014.1 -
17/12:00am S 4 9 - - - - - - - 11.3 1013.9 -
 
Date/Time
EST
Wind Sea
Height
m
Swell Vis
km
Cloud Weather Temp
°C
Press
MSL
hPa
Rain since
9am
mm
Dir  Spd
kts
Gust
kts
Height
m
Period
s
Dir
16/11:30pm SSW 11 18 - - - - - - - 11.2 1013.8 -
16/11:00pm W 3 5 - - - - - - - 10.6 1014.1 -
16/10:30pm WNW 5 8 - - - - - - - 10.8 1014.2 -
16/10:00pm WNW 5 7 - - - - - - - 10.9 1014.1 -
16/09:30pm W 4 7 - - - - - - - 11.4 1014.1 -
16/09:00pm WNW 2 4 - - - - - - - 11.5 1014.1 -
16/08:30pm WSW 2 5 - - - - - - - 12.0 1013.9 -
16/08:00pm SW 9 15 - - - - - - - 12.0 1013.8 -
16/07:30pm SW 10 18 - - - - - - - 12.2 1013.6 -
16/07:00pm SW 11 14 - - - - - - - 12.6 1013.3 -
16/06:30pm SW 15 21 - - - - - - - 13.0 1012.5 -
16/06:00pm SW 11 22 - - - - - - - 13.3 1011.5 -
16/05:30pm SSW 12 18 - - - - - - - 13.9 1010.4 -
16/05:00pm SW 10 18 - - - - - - - 14.3 1010.0 -
16/04:30pm SW 9 15 - - - - - - - 14.7 1009.9 -
16/04:00pm SW 12 19 - - - - - - - 15.3 1009.8 -
16/03:30pm SW 11 17 - - - - - - - 15.7 1009.6 -
16/03:00pm WSW 10 20 - - - - - - - 15.8 1009.0 -
16/02:30pm SW 11 19 - - - - - - - 15.8 1008.8 -
16/02:00pm SW 8 18 - - - - - - - 15.7 1008.4 -
16/01:30pm SW 10 16 - - - - - - - 14.9 1008.2 -
16/01:00pm SW 6 13 - - - - - - - 15.6 1008.0 -
16/12:30pm WSW 9 15 - - - - - - - 15.1 1007.8 -
16/12:00pm WSW 9 16 - - - - - - - 14.7 1007.7 -
16/11:30am WSW 7 11 - - - - - - - 14.5 1007.7 -
16/11:00am W 2 10 - - - - - - - 14.2 1007.4 -
16/10:30am WNW 3 6 - - - - - - - 13.4 1007.1 -
16/10:00am SW 4 10 - - - - - - - 13.5 1006.7 -
16/09:30am WSW 6 11 - - - - - - - 13.2 1006.0 -

Other formats

Comma delimited format used in spreadsheet applications
http://www.bom.gov.au/fwo/IDT60701/IDT60701.95963.axf

JavaScript Object Notation format (JSON) in row-major order
http://www.bom.gov.au/fwo/IDT60701/IDT60701.95963.json

Data quality

Most of these data are generated automatically and are frequently updated. Quality checks on data are not normally performed. It is possible for incorrect values to appear. Refer to information at About Latest Weather Observations and please check the disclaimer before using these data.